createdAt,value
2023-03-16T00:03:42.439Z,23.1
2023-03-16T00:09:36.152Z,22.6
2023-03-16T00:15:14.511Z,22.4
2023-03-16T00:20:37.528Z,21.9
2023-03-16T00:26:30.180Z,23.1
2023-03-16T00:31:53.589Z,25
2023-03-16T00:37:46.789Z,23.7
2023-03-16T00:43:39.229Z,23.2
2023-03-16T00:49:17.461Z,23.5
2023-03-16T00:54:55.621Z,23.2
2023-03-16T01:00:48.657Z,22.8
2023-03-16T01:06:26.351Z,22.5
2023-03-16T01:11:47.985Z,22
2023-03-16T01:17:25.085Z,23.1
2023-03-16T01:22:30.974Z,24.8
2023-03-16T01:28:23.073Z,23.9
2023-03-16T01:34:01.768Z,23.3
2023-03-16T01:39:54.421Z,23.6
2023-03-16T01:45:47.139Z,23
2023-03-16T01:50:55.306Z,22.8
2023-03-16T01:56:48.131Z,22.4
2023-03-16T02:02:10.791Z,22.1
2023-03-16T02:07:33.741Z,22.3
2023-03-16T02:13:27.559Z,24.1
2023-03-16T02:19:05.755Z,23.1
2023-03-16T02:24:58.879Z,20.1
2023-03-16T02:30:52.015Z,23.9
2023-03-16T02:36:45.710Z,25.4
2023-03-16T02:42:23.650Z,23.3
2023-03-16T02:48:02.278Z,23.7
2023-03-16T02:53:55.109Z,23.1
2023-03-16T02:59:32.980Z,22.9
2023-03-16T03:04:42.027Z,22.4
2023-03-16T03:10:34.244Z,22.3
2023-03-16T03:16:26.664Z,22.1
2023-03-16T03:22:19.087Z,24.1
2023-03-16T03:27:56.842Z,25.3
2023-03-16T03:33:49.331Z,23.4
2023-03-16T03:39:12.122Z,23.7
2023-03-16T03:44:49.358Z,23.1
2023-03-16T03:50:11.561Z,23
2023-03-16T03:55:18.127Z,22.4
2023-03-16T04:01:13.895Z,22.3
2023-03-16T04:07:07.720Z,22
2023-03-16T04:12:45.417Z,23.6
2023-03-16T04:18:38.462Z,25.2
2023-03-16T04:24:00.438Z,23.5
2023-03-16T04:29:23.558Z,23.4
2023-03-16T04:35:00.798Z,23.4
2023-03-16T04:40:38.647Z,23.1
2023-03-16T04:46:16.379Z,22.6
2023-03-16T04:51:54.333Z,22.4
2023-03-16T04:57:47.585Z,21.9
2023-03-16T05:03:41.258Z,23.3
2023-03-16T05:09:39.668Z,24.9
2023-03-16T05:14:45.402Z,23.9
2023-03-16T05:20:39.380Z,23.3
2023-03-16T05:26:31.955Z,23.6
2023-03-16T05:31:54.999Z,22.9
2023-03-16T05:37:36.353Z,22.8
2023-03-16T05:43:28.217Z,22.3
2023-03-16T05:49:07.004Z,22.1
2023-03-16T05:54:45.555Z,22.9
2023-03-16T06:00:38.995Z,24.4
2023-03-16T06:06:33.107Z,25.1
2023-03-16T06:12:26.945Z,19.4
2023-03-16T06:18:19.282Z,22.3
2023-03-16T06:24:11.022Z,24.4
2023-03-16T06:30:06.487Z,24.1
2023-03-16T06:36:01.932Z,23.2
2023-03-16T06:41:54.773Z,23.5
2023-03-16T06:47:35.459Z,22.9
2023-03-16T06:53:14.403Z,22.8
2023-03-16T06:59:06.730Z,22.2
2023-03-16T07:04:59.920Z,22
2023-03-16T07:10:52.882Z,22.9
2023-03-16T07:16:49.807Z,24.7
2023-03-16T07:22:44.101Z,23.8
2023-03-16T07:28:36.961Z,23.2
2023-03-16T07:34:51.587Z,23.4
2023-03-16T07:40:30.233Z,23.1
2023-03-16T07:46:07.109Z,22.6
2023-03-16T07:51:43.669Z,22.4
2023-03-16T07:57:54.565Z,21.9
2023-03-16T08:03:48.908Z,23.4
2023-03-16T08:09:41.359Z,25.1
2023-03-16T08:15:22.882Z,23.4
2023-03-16T08:21:15.589Z,23
2023-03-16T08:27:20.713Z,23.3
2023-03-16T08:32:59.991Z,23
2023-03-16T08:38:38.527Z,22.5
2023-03-16T08:44:27.750Z,22.7
2023-03-16T08:50:06.056Z,24.3
2023-03-16T08:56:09.728Z,24.7
2023-03-16T09:02:15.525Z,23.3
2023-03-16T09:08:16.470Z,23.6
2023-03-16T09:13:54.777Z,22.9
2023-03-16T09:19:40.887Z,22.8
2023-03-16T09:25:43.566Z,22.4
2023-03-16T09:31:39.887Z,23.8
2023-03-16T09:37:19.233Z,25.6
2023-03-16T09:43:16.400Z,22.6
2023-03-16T09:48:53.603Z,23.4
2023-03-16T09:54:08.659Z,22.8
2023-03-16T09:59:46.290Z,22.8
2023-03-16T10:05:39.497Z,22.3
2023-03-16T10:11:31.210Z,22.9
2023-03-16T10:17:24.871Z,24.9
2023-03-16T10:23:17.052Z,22.9
2023-03-16T10:28:53.754Z,22.6
2023-03-16T10:34:34.576Z,23.1
2023-03-16T10:40:28.019Z,22.5
2023-03-16T10:46:22.069Z,22.4
2023-03-16T10:52:16.182Z,22.2
2023-03-16T10:58:09.481Z,23.9
2023-03-16T11:04:02.364Z,25.6
2023-03-16T11:09:56.775Z,22.6
2023-03-16T11:16:13.955Z,23.3
2023-03-16T11:22:06.935Z,22.6
2023-03-16T11:27:59.319Z,22.5
2023-03-16T11:33:54.960Z,22
2023-03-16T11:39:49.170Z,23.7
2023-03-16T11:45:41.862Z,25.5
2023-03-16T11:51:34.260Z,23.4
2023-03-16T11:57:26.169Z,23.6
2023-03-16T12:03:24.296Z,23.1
2023-03-16T12:09:11.603Z,22.8
2023-03-16T12:15:04.570Z,22.3
2023-03-16T12:21:14.473Z,23.3
2023-03-16T12:27:07.609Z,25.1
2023-03-16T12:32:44.843Z,23.5
2023-03-16T12:38:37.491Z,23.2
2023-03-16T12:44:29.993Z,23.2
2023-03-16T12:50:07.444Z,22.9
2023-03-16T12:55:47.793Z,22.4
2023-03-16T13:01:10.084Z,22.6
2023-03-16T13:06:52.766Z,24.3
2023-03-16T13:12:31.319Z,24.6
2023-03-16T13:18:12.947Z,23.3
2023-03-16T13:24:21.602Z,23.6
2023-03-16T13:29:44.055Z,22.9
2023-03-16T13:34:50.965Z,22.8
2023-03-16T13:40:28.995Z,22.3
2023-03-16T13:46:10.646Z,21.8
2023-03-16T13:51:46.809Z,21.3
2023-03-16T13:57:24.156Z,20.8
2023-03-16T14:03:02.411Z,20.4
2023-03-16T14:08:39.864Z,20.1
2023-03-16T14:14:37.330Z,19.6
2023-03-16T14:20:39.555Z,19.3
2023-03-16T14:26:35.569Z,18.9
2023-03-16T14:32:28.914Z,18.6
2023-03-16T14:38:07.772Z,18.3
2023-03-16T14:44:01.455Z,18.1
2023-03-16T14:49:54.885Z,17.8
2023-03-16T14:55:32.364Z,17.6
2023-03-16T15:01:42.580Z,17.4
2023-03-16T15:07:36.766Z,17.3
2023-03-16T15:13:31.469Z,17.1
2023-03-16T15:19:08.968Z,17.1
2023-03-16T15:30:39.126Z,17.2
2023-03-16T15:36:16.753Z,17.4
2023-03-16T15:42:21.639Z,17.7
2023-03-16T15:48:14.121Z,17.9
2023-03-16T15:54:21.202Z,18.1
2023-03-16T16:00:28.767Z,18.2
2023-03-16T16:06:06.009Z,18.2
2023-03-16T16:11:27.374Z,18.2
2023-03-16T16:17:21.190Z,18.2
2023-03-16T16:23:25.917Z,18.4
2023-03-16T16:34:10.751Z,18.8
2023-03-16T16:39:44.816Z,18.8
2023-03-16T16:49:44.146Z,18.6
2023-03-16T16:55:06.311Z,18.5
2023-03-16T17:00:54.932Z,18.4
2023-03-16T17:06:04.418Z,18.2
2023-03-16T17:11:26.942Z,18.1
2023-03-16T17:16:50.833Z,18.1
2023-03-16T17:22:43.678Z,18.1
2023-03-16T17:28:06.466Z,17.9
2023-03-16T17:33:44.869Z,17.9
2023-03-16T17:39:23.223Z,17.8
2023-03-16T17:45:06.946Z,17.8
2023-03-16T17:50:59.831Z,17.7
2023-03-16T17:56:52.707Z,17.6
2023-03-16T18:02:15.365Z,17.6
2023-03-16T18:08:11.094Z,17.4
2023-03-16T18:13:49.115Z,17.4
2023-03-16T18:18:56.839Z,17.4
2023-03-16T18:24:50.117Z,17.4
2023-03-16T18:30:45.204Z,17.5
2023-03-16T18:36:38.573Z,17.5
2023-03-16T18:42:16.498Z,17.5
2023-03-16T18:47:54.227Z,17.5
2023-03-16T18:53:47.641Z,17.5
2023-03-16T18:59:09.889Z,17.6
2023-03-16T19:04:16.218Z,17.4
2023-03-16T19:09:41.049Z,17.5
2023-03-16T19:15:19.379Z,17.4
2023-03-16T19:20:56.427Z,17.4
2023-03-16T19:26:34.498Z,17.4
2023-03-16T19:32:12.788Z,17.4
2023-03-16T19:38:03.745Z,17.4
2023-03-16T19:43:41.712Z,17.3
2023-03-16T19:49:34.922Z,17.3
2023-03-16T19:55:28.055Z,17.1
2023-03-16T20:01:20.849Z,17.1
2023-03-16T20:07:14.882Z,17.1
2023-03-16T20:12:52.568Z,17.2
2023-03-16T20:18:15.736Z,17.4
2023-03-16T20:23:37.848Z,17.5
2023-03-16T20:29:30.334Z,17.6
2023-03-16T20:35:23.553Z,17.6
2023-03-16T20:41:02.343Z,17.6
2023-03-16T20:46:40.594Z,17.5
2023-03-16T20:52:01.608Z,17.4
2023-03-16T20:57:39.559Z,17.3
2023-03-16T21:03:32.803Z,17.3
2023-03-16T21:09:25.870Z,17.1
2023-03-16T21:20:50.609Z,16.9
2023-03-16T21:26:43.802Z,16.8
2023-03-16T21:32:37.302Z,16.7
2023-03-16T21:38:30.239Z,16.6
2023-03-16T21:44:25.104Z,16.4
2023-03-16T21:50:18.829Z,16.4
2023-03-16T21:55:57.995Z,16.3
2023-03-16T22:01:21.486Z,24.9
2023-03-16T22:07:42.633Z,25.3
2023-03-16T22:13:19.815Z,24.9
2023-03-16T22:19:13.106Z,24.3
2023-03-16T22:24:51.588Z,24.3
2023-03-16T22:30:28.723Z,23.8
2023-03-16T22:36:21.331Z,23.9
2023-03-16T22:42:14.069Z,23.3
2023-03-16T22:47:50.551Z,23.4
2023-03-16T22:53:43.736Z,23.1
2023-03-16T22:59:37.353Z,25.8
2023-03-16T23:05:31.756Z,25.5
2023-03-16T23:11:09.102Z,25.1
2023-03-16T23:17:04.368Z,24.8
2023-03-16T23:23:10.954Z,24.3
2023-03-16T23:28:55.352Z,23.8
2023-03-16T23:34:33.908Z,23.8
2023-03-16T23:40:11.097Z,23.2
2023-03-16T23:45:48.595Z,23.3
2023-03-16T23:51:26.727Z,22.7
2023-03-16T23:57:03.288Z,24.4
